createdAt,value
2019-04-03T00:02:04.039Z,12.33
2019-04-03T00:04:31.126Z,13.03
2019-04-03T00:06:58.649Z,13.03
2019-04-03T00:09:26.253Z,11.43
2019-04-03T00:11:56.634Z,13.17
2019-04-03T00:14:24.238Z,12.20
2019-04-03T00:16:54.429Z,13.30
2019-04-03T00:19:22.297Z,12.30
2019-04-03T00:21:50.639Z,12.53
2019-04-03T00:24:18.735Z,12.07
2019-04-03T00:26:46.296Z,12.60
2019-04-03T00:29:14.058Z,12.60
2019-04-03T00:31:47.681Z,11.83
2019-04-03T00:34:18.328Z,12.50
2019-04-03T00:36:45.890Z,12.97
2019-04-03T00:39:13.487Z,12.50
2019-04-03T00:41:42.346Z,12.20
2019-04-03T00:44:09.968Z,12.90
2019-04-03T00:46:37.848Z,12.87
2019-04-03T00:49:05.828Z,13.80
2019-04-03T00:51:36.577Z,13.70
2019-04-03T00:54:04.255Z,13.60
2019-04-03T00:56:34.452Z,13.17
2019-04-03T00:59:02.120Z,12.83
2019-04-03T01:01:30.106Z,12.70
2019-04-03T01:03:58.887Z,13.33
2019-04-03T01:06:28.696Z,12.87
2019-04-03T01:08:59.018Z,13.13
2019-04-03T01:11:26.248Z,13.10
2019-04-03T01:13:53.833Z,13.17
2019-04-03T01:16:21.669Z,13.10
2019-04-03T01:18:49.559Z,13.53
2019-04-03T01:21:17.208Z,12.90
2019-04-03T01:23:44.970Z,13.63
2019-04-03T01:26:13.322Z,13.20
2019-04-03T01:28:41.956Z,14.97
2019-04-03T01:31:10.303Z,14.83
2019-04-03T01:33:37.921Z,15.00
2019-04-03T01:36:05.537Z,13.90
2019-04-03T01:38:33.404Z,13.83
2019-04-03T01:41:01.040Z,12.43
2019-04-03T01:43:29.078Z,14.50
2019-04-03T01:45:57.240Z,13.20
2019-04-03T01:48:24.926Z,13.57
2019-04-03T01:50:52.681Z,13.50
2019-04-03T01:53:20.307Z,13.37
2019-04-03T01:55:48.582Z,13.77
2019-04-03T01:58:16.071Z,13.47
2019-04-03T02:00:43.646Z,13.00
2019-04-03T02:03:11.171Z,13.47
2019-04-03T02:05:38.758Z,12.63
2019-04-03T02:08:16.975Z,12.30
2019-04-03T02:10:45.057Z,13.00
2019-04-03T02:13:28.068Z,12.93
2019-04-03T02:16:01.628Z,13.13
2019-04-03T02:18:32.981Z,12.97
2019-04-03T02:21:03.080Z,13.57
2019-04-03T02:23:31.235Z,13.67
2019-04-03T02:25:58.831Z,12.77
2019-04-03T02:28:26.596Z,13.57
2019-04-03T02:30:54.633Z,13.00
2019-04-03T02:33:22.257Z,12.83
2019-04-03T02:35:49.833Z,12.73
2019-04-03T02:38:21.317Z,13.33
2019-04-03T02:40:47.142Z,13.83
2019-04-03T02:43:15.600Z,12.27
2019-04-03T02:45:43.431Z,13.33
2019-04-03T02:48:10.963Z,13.70
2019-04-03T02:50:38.748Z,13.47
2019-04-03T02:53:07.913Z,13.27
2019-04-03T02:55:39.337Z,12.73
2019-04-03T02:58:05.380Z,13.77
2019-04-03T03:00:36.439Z,13.37
2019-04-03T03:03:04.251Z,12.80
2019-04-03T03:05:35.015Z,13.00
2019-04-03T03:08:02.564Z,12.77
2019-04-03T03:10:31.918Z,12.60
2019-04-03T03:13:01.760Z,12.30
2019-04-03T03:15:29.368Z,12.60
2019-04-03T03:17:57.398Z,12.43
2019-04-03T03:20:27.801Z,13.27
2019-04-03T03:22:56.959Z,12.43
2019-04-03T03:25:25.164Z,12.20
2019-04-03T03:27:53.561Z,12.83
2019-04-03T03:30:41.097Z,13.53
2019-04-03T03:33:19.304Z,12.80
2019-04-03T03:35:31.250Z,13.70
2019-04-03T03:37:53.296Z,13.30
2019-04-03T03:40:21.449Z,13.37
2019-04-03T03:43:09.321Z,12.97
2019-04-03T03:45:37.212Z,13.00
2019-04-03T03:48:08.554Z,14.00
2019-04-03T03:50:35.978Z,14.13
2019-04-03T03:53:04.149Z,13.47
2019-04-03T03:55:32.019Z,14.80
2019-04-03T03:58:00.690Z,13.97
2019-04-03T04:00:28.774Z,14.50
2019-04-03T04:02:57.691Z,13.73
2019-04-03T04:05:25.649Z,14.40
2019-04-03T04:07:54.559Z,13.97
2019-04-03T04:10:25.184Z,14.47
2019-04-03T04:12:53.085Z,13.90
2019-04-03T04:15:21.183Z,14.23
2019-04-03T04:17:50.955Z,14.30
2019-04-03T04:20:18.686Z,14.10
2019-04-03T04:22:50.802Z,14.07
2019-04-03T04:25:17.052Z,14.67
2019-04-03T04:27:44.860Z,14.70
2019-04-03T04:30:16.768Z,14.07
2019-04-03T04:32:46.201Z,14.10
2019-04-03T04:35:14.299Z,15.83
2019-04-03T04:37:42.074Z,14.97
2019-04-03T04:40:09.989Z,14.23
2019-04-03T04:42:37.717Z,14.83
2019-04-03T04:45:05.866Z,14.83
2019-04-03T04:47:33.579Z,14.23
2019-04-03T04:50:01.089Z,14.33
2019-04-03T04:52:28.634Z,14.57
2019-04-03T04:54:56.209Z,14.73
2019-04-03T04:57:23.855Z,14.73
2019-04-03T04:59:51.418Z,14.03
2019-04-03T05:02:19.871Z,14.80
2019-04-03T05:04:48.133Z,15.17
2019-04-03T05:07:17.088Z,15.43
2019-04-03T05:09:44.993Z,14.73
2019-04-03T05:12:12.665Z,15.20
2019-04-03T05:14:40.209Z,13.97
2019-04-03T05:17:07.823Z,14.93
2019-04-03T05:19:35.407Z,14.73
2019-04-03T05:22:02.981Z,15.80
2019-04-03T05:24:30.818Z,14.90
2019-04-03T05:26:58.539Z,14.73
2019-04-03T05:29:26.156Z,15.93
2019-04-03T05:31:54.130Z,16.07
2019-04-03T05:34:21.640Z,15.47
2019-04-03T05:36:49.193Z,16.10
2019-04-03T05:39:17.004Z,16.33
2019-04-03T05:41:44.888Z,16.53
2019-04-03T05:44:12.693Z,15.73
2019-04-03T05:46:40.593Z,15.07
2019-04-03T05:49:10.793Z,14.67
2019-04-03T05:51:37.955Z,15.17
2019-04-03T05:54:07.301Z,17.63
2019-04-03T05:56:35.231Z,14.63
2019-04-03T05:59:03.699Z,14.83
2019-04-03T06:01:31.730Z,16.07
2019-04-03T06:03:59.747Z,16.60
2019-04-03T06:06:27.504Z,16.37
2019-04-03T06:08:58.218Z,16.67
2019-04-03T06:11:26.445Z,15.97
2019-04-03T06:13:54.333Z,16.93
2019-04-03T06:16:24.572Z,16.47
2019-04-03T06:18:52.090Z,15.90
2019-04-03T06:21:20.273Z,15.37
2019-04-03T06:23:48.525Z,16.57
2019-04-03T06:26:16.508Z,15.33
2019-04-03T06:28:46.360Z,14.93
2019-04-03T06:31:14.649Z,15.20
2019-04-03T06:33:42.582Z,14.43
2019-04-03T06:36:10.357Z,15.00
2019-04-03T06:38:38.220Z,16.23
2019-04-03T06:41:07.784Z,15.30
2019-04-03T06:43:35.807Z,16.27
2019-04-03T06:46:03.780Z,16.33
2019-04-03T06:48:31.865Z,14.30
2019-04-03T06:50:59.751Z,15.20
2019-04-03T06:53:28.790Z,15.23
2019-04-03T06:55:58.771Z,15.53
2019-04-03T06:58:36.846Z,15.27
2019-04-03T07:00:56.670Z,15.63
2019-04-03T07:03:24.790Z,14.43
2019-04-03T07:05:52.774Z,14.80
2019-04-03T07:08:30.064Z,14.67
2019-04-03T07:10:54.900Z,15.43
2019-04-03T07:13:20.610Z,14.77
2019-04-03T07:15:49.081Z,15.70
2019-04-03T07:18:16.985Z,15.43
2019-04-03T07:20:46.292Z,15.90
2019-04-03T07:23:14.195Z,15.17
2019-04-03T07:25:42.103Z,15.13
2019-04-03T07:28:10.296Z,14.77
2019-04-03T07:30:38.311Z,15.57
2019-04-03T07:33:06.455Z,15.80
2019-04-03T07:35:34.271Z,14.73
2019-04-03T07:38:02.588Z,15.07
2019-04-03T07:40:30.777Z,15.20
2019-04-03T07:43:00.323Z,15.10
2019-04-03T07:45:28.199Z,14.77
2019-04-03T07:47:56.006Z,15.47
2019-04-03T07:50:24.098Z,15.37
2019-04-03T07:52:52.247Z,16.40
2019-04-03T07:55:20.587Z,15.33
2019-04-03T07:57:52.787Z,17.03
2019-04-03T08:00:21.107Z,17.13
2019-04-03T08:02:50.029Z,16.10
2019-04-03T08:05:19.645Z,16.20
2019-04-03T08:07:48.888Z,16.40
2019-04-03T08:10:16.957Z,17.67
2019-04-03T08:12:45.022Z,16.37
2019-04-03T08:15:13.898Z,15.80
2019-04-03T08:17:42.007Z,17.73
2019-04-03T08:20:10.298Z,16.83
2019-04-03T08:22:38.096Z,16.90
2019-04-03T08:25:06.686Z,17.17
2019-04-03T08:27:34.808Z,17.80
2019-04-03T08:30:03.552Z,16.20
2019-04-03T08:32:31.561Z,16.83
2019-04-03T08:35:02.797Z,14.33
2019-04-03T08:37:32.631Z,15.37
2019-04-03T08:40:00.774Z,15.77
2019-04-03T08:42:30.798Z,15.80
2019-04-03T08:44:58.324Z,15.27
2019-04-03T08:47:26.392Z,15.83
2019-04-03T08:49:56.448Z,15.33
2019-04-03T08:52:24.068Z,14.93
2019-04-03T08:54:52.022Z,14.73
2019-04-03T08:57:22.323Z,14.20
2019-04-03T08:59:51.724Z,13.47
2019-04-03T09:02:19.823Z,14.03
2019-04-03T09:04:48.724Z,14.23
2019-04-03T09:07:16.519Z,13.60
2019-04-03T09:09:44.926Z,14.80
2019-04-03T09:12:12.771Z,13.37
2019-04-03T09:14:40.931Z,14.67
2019-04-03T09:17:08.631Z,14.03
2019-04-03T09:19:40.705Z,14.90
2019-04-03T09:22:09.075Z,14.33
2019-04-03T09:24:37.081Z,14.17
2019-04-03T09:27:05.007Z,14.17
2019-04-03T09:29:33.160Z,14.23
2019-04-03T09:32:01.465Z,14.80
2019-04-03T09:34:30.497Z,14.30
2019-04-03T09:36:59.698Z,14.67
2019-04-03T09:39:27.961Z,14.73
2019-04-03T09:42:16.810Z,14.90
2019-04-03T09:44:44.721Z,13.67
2019-04-03T09:47:13.208Z,14.03
2019-04-03T09:49:43.795Z,13.90
2019-04-03T09:52:10.716Z,14.97
2019-04-03T09:54:38.432Z,14.50
2019-04-03T09:57:06.045Z,15.20
2019-04-03T09:59:33.811Z,14.90
2019-04-03T10:02:01.799Z,14.00
2019-04-03T10:04:29.707Z,15.00
2019-04-03T10:06:57.484Z,14.47
2019-04-03T10:09:25.195Z,15.00
2019-04-03T10:11:52.873Z,15.23
2019-04-03T10:14:20.718Z,15.37
2019-04-03T10:16:48.611Z,14.97
2019-04-03T10:19:16.200Z,15.47
2019-04-03T10:21:43.768Z,13.80
2019-04-03T10:24:11.387Z,14.03
2019-04-03T10:26:40.277Z,13.83
2019-04-03T10:29:08.297Z,13.57
2019-04-03T10:31:36.106Z,11.27
2019-04-03T10:34:04.202Z,9.17
2019-04-03T10:36:32.213Z,7.23
2019-04-03T10:39:00.177Z,8.27
2019-04-03T10:41:28.748Z,8.80
2019-04-03T10:43:56.965Z,4.70
2019-04-03T10:46:24.665Z,5.83
2019-04-03T10:48:52.206Z,6.57
2019-04-03T10:51:19.722Z,5.93
2019-04-03T10:53:47.271Z,5.80
2019-04-03T10:56:14.862Z,4.20
2019-04-03T10:58:43.749Z,5.20
2019-04-03T11:01:11.425Z,4.70
2019-04-03T11:03:38.988Z,4.40
2019-04-03T11:06:06.529Z,5.40
2019-04-03T11:08:34.126Z,5.00
2019-04-03T11:11:04.261Z,5.43
2019-04-03T11:13:33.740Z,6.00
2019-04-03T11:16:00.314Z,4.93
2019-04-03T11:18:28.235Z,5.43
2019-04-03T11:20:55.807Z,4.43
2019-04-03T11:23:36.861Z,4.93
2019-04-03T11:25:52.711Z,5.30
2019-04-03T11:28:20.723Z,5.33
2019-04-03T11:30:51.122Z,5.93
2019-04-03T11:33:17.942Z,6.40
2019-04-03T11:35:45.628Z,5.53
2019-04-03T11:38:21.036Z,6.17
2019-04-03T11:40:42.397Z,5.90
2019-04-03T11:43:09.950Z,6.00
2019-04-03T11:45:37.431Z,6.03
2019-04-03T11:48:05.306Z,6.93
2019-04-03T11:50:32.945Z,6.37
2019-04-03T11:53:02.407Z,6.67
2019-04-03T11:55:30.024Z,10.97
2019-04-03T11:57:58.124Z,6.20
2019-04-03T12:00:29.943Z,6.30
2019-04-03T12:02:57.683Z,5.80
2019-04-03T12:05:25.340Z,6.37
2019-04-03T12:07:55.612Z,5.47
2019-04-03T12:10:24.909Z,6.10
2019-04-03T12:12:51.952Z,6.30
2019-04-03T12:15:21.536Z,6.47
2019-04-03T12:17:48.990Z,6.83
2019-04-03T12:20:16.770Z,6.50
2019-04-03T12:22:44.448Z,6.23
2019-04-03T12:25:12.865Z,5.80
2019-04-03T12:27:40.600Z,6.47
2019-04-03T12:30:08.676Z,5.60
2019-04-03T12:32:40.998Z,5.77
2019-04-03T12:35:07.280Z,5.60
2019-04-03T12:37:35.989Z,6.43
2019-04-03T12:40:05.041Z,5.30
2019-04-03T12:42:32.620Z,5.87
2019-04-03T12:45:00.234Z,6.60
2019-04-03T12:47:28.690Z,5.37
2019-04-03T12:49:56.649Z,5.57
2019-04-03T12:52:24.379Z,4.67
2019-04-03T12:54:53.760Z,4.93
2019-04-03T12:57:21.365Z,5.20
2019-04-03T12:59:48.972Z,4.83
2019-04-03T13:02:17.327Z,5.00
2019-04-03T13:04:45.037Z,4.90
2019-04-03T13:07:14.133Z,4.97
2019-04-03T13:09:42.109Z,5.10
2019-04-03T13:12:09.998Z,4.77
2019-04-03T13:14:37.560Z,4.80
2019-04-03T13:17:05.152Z,4.37
2019-04-03T13:19:33.006Z,4.03
2019-04-03T13:22:00.587Z,4.70
2019-04-03T13:24:28.233Z,4.43
2019-04-03T13:26:58.013Z,4.10
2019-04-03T13:29:25.495Z,4.33
2019-04-03T13:31:53.090Z,3.90
2019-04-03T13:34:20.851Z,3.67
2019-04-03T13:36:50.987Z,4.53
2019-04-03T13:39:17.917Z,4.33
2019-04-03T13:41:46.019Z,3.77
2019-04-03T13:44:13.639Z,3.40
2019-04-03T13:46:48.903Z,3.67
2019-04-03T13:49:18.055Z,3.23
2019-04-03T13:51:45.895Z,3.63
2019-04-03T13:54:13.691Z,3.50
2019-04-03T13:56:43.118Z,3.40
2019-04-03T13:59:10.854Z,3.50
2019-04-03T14:01:40.263Z,4.17
2019-04-03T14:04:07.947Z,3.20
2019-04-03T14:06:36.227Z,4.77
2019-04-03T14:09:06.467Z,3.70
2019-04-03T14:11:34.238Z,3.40
2019-04-03T14:14:01.766Z,3.30
2019-04-03T14:16:29.534Z,2.47
2019-04-03T14:18:57.126Z,2.90
2019-04-03T14:21:27.348Z,3.17
2019-04-03T14:23:54.261Z,3.17
2019-04-03T14:26:21.766Z,3.17
2019-04-03T14:28:49.368Z,4.00
2019-04-03T14:31:18.089Z,3.47
2019-04-03T14:33:47.166Z,3.70
2019-04-03T14:36:18.481Z,4.03
2019-04-03T14:38:44.782Z,3.70
2019-04-03T14:41:12.869Z,5.83
2019-04-03T14:43:40.782Z,3.40
2019-04-03T14:46:08.531Z,3.73
2019-04-03T14:48:36.295Z,5.87
2019-04-03T14:51:07.197Z,4.13
2019-04-03T14:53:35.575Z,3.20
2019-04-03T14:56:06.224Z,2.67
2019-04-03T14:58:34.023Z,2.83
2019-04-03T15:01:03.174Z,2.47
2019-04-03T15:03:33.518Z,3.43
2019-04-03T15:06:01.358Z,2.67
2019-04-03T15:08:29.677Z,2.67
2019-04-03T15:10:57.772Z,4.83
2019-04-03T15:13:36.695Z,4.17
2019-04-03T15:16:05.763Z,3.50
2019-04-03T15:18:36.556Z,4.77
2019-04-03T15:21:04.245Z,3.57
2019-04-03T15:24:17.706Z,3.47
2019-04-03T15:26:55.041Z,3.07
2019-04-03T15:45:34.212Z,3.63
2019-04-03T15:48:01.842Z,2.80
2019-04-03T15:50:32.110Z,3.30
2019-04-03T15:52:59.179Z,2.80
2019-04-03T15:55:27.282Z,3.30
2019-04-03T15:57:55.053Z,3.07
2019-04-03T16:00:25.252Z,3.20
2019-04-03T16:02:52.998Z,2.90
2019-04-03T16:05:30.140Z,2.93
2019-04-03T16:07:56.301Z,3.47
2019-04-03T16:10:24.663Z,3.37
2019-04-03T16:12:56.792Z,3.03
2019-04-03T16:15:24.634Z,3.00
2019-04-03T16:17:52.246Z,3.57
2019-04-03T16:20:20.323Z,3.70
2019-04-03T16:23:03.852Z,3.90
2019-04-03T16:25:38.391Z,4.17
2019-04-03T16:28:09.759Z,4.47
2019-04-03T16:30:38.144Z,4.73
2019-04-03T16:33:13.656Z,4.50
2019-04-03T16:35:35.107Z,4.13
2019-04-03T16:38:02.785Z,4.50
2019-04-03T16:40:31.756Z,4.90
2019-04-03T16:43:00.154Z,4.57
2019-04-03T16:45:28.806Z,4.63
2019-04-03T16:47:56.544Z,4.90
2019-04-03T16:50:27.306Z,4.67
2019-04-03T16:52:54.526Z,4.47
2019-04-03T16:55:22.812Z,4.60
2019-04-03T16:57:53.238Z,5.40
2019-04-03T17:00:22.746Z,5.27
2019-04-03T17:02:50.667Z,5.90
2019-04-03T17:05:18.829Z,5.40
2019-04-03T17:07:48.691Z,5.30
2019-04-03T17:10:16.939Z,5.50
2019-04-03T17:12:46.052Z,5.63
2019-04-03T17:15:14.693Z,5.27
2019-04-03T17:17:45.692Z,5.30
2019-04-03T17:20:16.204Z,5.60
2019-04-03T17:22:46.156Z,5.37
2019-04-03T17:25:16.342Z,5.50
2019-04-03T17:27:54.089Z,5.90
2019-04-03T17:30:18.270Z,6.40
2019-04-03T17:32:47.810Z,6.73
2019-04-03T17:35:16.261Z,6.10
2019-04-03T17:37:43.822Z,6.13
2019-04-03T17:40:12.278Z,6.17
2019-04-03T17:42:41.980Z,6.53
2019-04-03T17:45:09.898Z,6.27
2019-04-03T17:47:41.203Z,6.37
2019-04-03T17:50:12.994Z,6.33
2019-04-03T17:52:40.663Z,6.47
2019-04-03T17:55:10.053Z,6.40
2019-04-03T17:57:38.876Z,6.13
2019-04-03T18:00:09.618Z,5.87
2019-04-03T18:02:39.634Z,6.03
2019-04-03T18:05:19.595Z,5.97
2019-04-03T18:07:47.149Z,6.37
2019-04-03T18:10:16.716Z,5.57
2019-04-03T18:12:45.869Z,5.43
2019-04-03T18:15:14.064Z,5.00
2019-04-03T18:17:41.608Z,5.67
2019-04-03T18:20:12.577Z,5.43
2019-04-03T18:22:38.803Z,5.00
2019-04-03T18:25:08.341Z,5.70
2019-04-03T18:27:36.611Z,5.50
2019-04-03T18:30:07.283Z,5.20
2019-04-03T18:32:34.912Z,6.10
2019-04-03T18:35:25.566Z,5.40
2019-04-03T18:37:52.721Z,5.83
2019-04-03T18:40:20.346Z,5.80
2019-04-03T18:42:51.416Z,5.47
2019-04-03T18:45:25.529Z,5.53
2019-04-03T18:47:51.252Z,6.23
2019-04-03T18:50:19.072Z,6.07
2019-04-03T18:52:46.629Z,6.30
2019-04-03T18:55:14.797Z,6.27
2019-04-03T18:57:42.457Z,6.17
2019-04-03T19:00:10.483Z,6.17
2019-04-03T19:02:38.049Z,6.60
2019-04-03T19:05:08.763Z,5.93
2019-04-03T19:07:36.946Z,6.30
2019-04-03T19:10:07.429Z,6.47
2019-04-03T19:12:36.040Z,6.40
2019-04-03T19:15:17.598Z,6.50
2019-04-03T19:17:59.527Z,6.30
2019-04-03T19:20:17.922Z,6.60
2019-04-03T19:22:45.544Z,6.57
2019-04-03T19:25:13.847Z,6.53
2019-04-03T19:28:16.177Z,7.50
2019-04-03T19:30:16.041Z,7.10
2019-04-03T19:32:44.001Z,7.00
2019-04-03T19:35:36.301Z,7.60
2019-04-03T19:38:05.025Z,6.90
2019-04-03T19:40:33.198Z,7.70
2019-04-03T19:43:00.861Z,8.43
2019-04-03T19:45:29.064Z,7.50
2019-04-03T19:47:56.855Z,7.87
2019-04-03T19:50:32.471Z,7.57
2019-04-03T19:52:57.463Z,8.47
2019-04-03T19:55:25.127Z,8.20
2019-04-03T19:57:52.886Z,7.90
2019-04-03T20:00:20.508Z,8.57
2019-04-03T20:02:48.786Z,8.57
2019-04-03T20:05:18.554Z,8.27
2019-04-03T20:07:45.732Z,8.37
2019-04-03T20:10:13.796Z,10.20
2019-04-03T20:12:41.336Z,8.10
2019-04-03T20:15:09.208Z,8.77
2019-04-03T20:17:37.089Z,8.80
2019-04-03T20:20:06.659Z,8.43
2019-04-03T20:22:37.156Z,9.17
2019-04-03T20:25:03.995Z,8.70
2019-04-03T20:27:31.738Z,8.43
2019-04-03T20:30:01.522Z,8.90
2019-04-03T20:32:29.071Z,9.03
2019-04-03T20:34:57.851Z,8.77
2019-04-03T20:37:27.208Z,8.77
2019-04-03T20:39:55.151Z,9.83
2019-04-03T20:42:22.879Z,9.83
2019-04-03T20:44:52.058Z,8.83
2019-04-03T20:47:19.676Z,9.60
2019-04-03T20:49:47.469Z,9.77
2019-04-03T20:52:15.215Z,9.90
2019-04-03T20:54:43.016Z,9.37
2019-04-03T20:57:13.365Z,8.93
2019-04-03T20:59:42.722Z,9.50
2019-04-03T21:02:09.875Z,11.57
2019-04-03T21:04:37.663Z,10.17
2019-04-03T21:07:05.854Z,9.93
2019-04-03T21:09:33.652Z,9.60
2019-04-03T21:12:02.976Z,9.30
2019-04-03T21:14:31.574Z,9.80
2019-04-03T21:17:01.486Z,9.87
2019-04-03T21:19:29.548Z,9.67
2019-04-03T21:21:57.707Z,9.13
2019-04-03T21:24:34.311Z,9.70
2019-04-03T21:27:04.163Z,9.23
2019-04-03T21:29:33.135Z,9.57
2019-04-03T21:32:02.132Z,9.93
2019-04-03T21:34:32.751Z,9.83
2019-04-03T21:37:02.078Z,9.33
2019-04-03T21:39:33.645Z,10.00
2019-04-03T21:42:02.520Z,9.93
2019-04-03T21:44:32.567Z,9.17
2019-04-03T21:47:34.487Z,10.73
2019-04-03T21:50:05.589Z,11.07
2019-04-03T21:52:34.535Z,11.33
2019-04-03T21:55:04.929Z,11.30
2019-04-03T21:57:33.899Z,9.20
2019-04-03T22:00:13.200Z,10.53
2019-04-03T22:05:43.233Z,10.00
2019-04-03T22:08:21.671Z,9.83
2019-04-03T22:10:50.559Z,10.37
2019-04-03T22:13:18.526Z,10.00
2019-04-03T22:15:46.495Z,11.00
2019-04-03T22:18:14.479Z,9.90
2019-04-03T22:20:42.508Z,9.50
2019-04-03T22:23:10.633Z,9.13
2019-04-03T22:25:39.501Z,9.37
2019-04-03T22:28:07.797Z,9.47
2019-04-03T22:30:35.702Z,9.93
2019-04-03T22:33:03.911Z,10.50
2019-04-03T22:35:32.150Z,10.30
2019-04-03T22:38:00.997Z,10.03
2019-04-03T22:40:28.757Z,9.70
2019-04-03T22:42:56.552Z,10.40
2019-04-03T22:45:24.364Z,10.00
2019-04-03T22:47:52.300Z,10.67
2019-04-03T22:50:20.409Z,9.87
2019-04-03T22:52:48.120Z,10.23
2019-04-03T22:55:16.144Z,10.60
2019-04-03T22:57:44.076Z,10.33
2019-04-03T23:00:11.876Z,9.90
2019-04-03T23:02:40.717Z,10.53
2019-04-03T23:05:08.779Z,11.00
2019-04-03T23:07:36.882Z,10.77
2019-04-03T23:10:05.637Z,10.33
2019-04-03T23:12:33.998Z,9.87
2019-04-03T23:15:02.098Z,9.73
2019-04-03T23:17:30.027Z,10.10
2019-04-03T23:19:58.235Z,10.20
2019-04-03T23:22:26.608Z,10.80
2019-04-03T23:24:54.819Z,10.80
2019-04-03T23:27:24.268Z,10.07
2019-04-03T23:29:52.411Z,10.67
2019-04-03T23:32:20.458Z,10.53
2019-04-03T23:34:49.739Z,10.70
2019-04-03T23:37:17.964Z,9.83
2019-04-03T23:39:45.783Z,10.27
2019-04-03T23:42:19.997Z,10.53
2019-04-03T23:44:47.935Z,10.03
2019-04-03T23:47:16.595Z,9.90
2019-04-03T23:49:45.181Z,9.27
2019-04-03T23:52:13.469Z,10.00
2019-04-03T23:54:41.539Z,10.07
2019-04-03T23:57:10.310Z,9.83
2019-04-03T23:59:42.447Z,10.10
